sensor_id;sensor_type;location;lat;lon;timestamp;pressure;altitude;pressure_sealevel;temperature;humidity
9139;BME280;4604;48.616;9.548;2022-08-19T00:00:36;96482.09;;;20.60;100.00
9139;BME280;4604;48.616;9.548;2022-08-19T00:03:04;96477.16;;;20.57;100.00
9139;BME280;4604;48.616;9.548;2022-08-19T00:05:30;96488.09;;;20.56;100.00
9139;BME280;4604;48.616;9.548;2022-08-19T00:07:57;96485.19;;;20.50;100.00
9139;BME280;4604;48.616;9.548;2022-08-19T00:10:26;96495.91;;;20.50;100.00
9139;BME280;4604;48.616;9.548;2022-08-19T00:12:52;96493.66;;;20.54;100.00
9139;BME280;4604;48.616;9.548;2022-08-19T00:15:20;96484.59;;;20.48;100.00
9139;BME280;4604;48.616;9.548;2022-08-19T00:17:48;96478.22;;;20.43;100.00
9139;BME280;4604;48.616;9.548;2022-08-19T00:20:18;96481.13;;;20.35;100.00
9139;BME280;4604;48.616;9.548;2022-08-19T00:22:46;96474.34;;;20.39;100.00
9139;BME280;4604;48.616;9.548;2022-08-19T00:25:13;96476.22;;;20.31;100.00
9139;BME280;4604;48.616;9.548;2022-08-19T00:27:42;96468.75;;;20.34;100.00
9139;BME280;4604;48.616;9.548;2022-08-19T00:30:09;96466.06;;;20.34;100.00
9139;BME280;4604;48.616;9.548;2022-08-19T00:32:37;96447.38;;;20.27;100.00
9139;BME280;4604;48.616;9.548;2022-08-19T00:35:04;96447.75;;;20.24;100.00
9139;BME280;4604;48.616;9.548;2022-08-19T00:37:31;96460.16;;;20.25;100.00
9139;BME280;4604;48.616;9.548;2022-08-19T00:40:00;96456.03;;;20.22;100.00
9139;BME280;4604;48.616;9.548;2022-08-19T00:42:28;96468.56;;;20.28;100.00
9139;BME280;4604;48.616;9.548;2022-08-19T00:44:56;96465.88;;;20.28;100.00
9139;BME280;4604;48.616;9.548;2022-08-19T00:47:23;96472.72;;;20.24;100.00
9139;BME280;4604;48.616;9.548;2022-08-19T00:49:52;96470.69;;;20.20;100.00
9139;BME280;4604;48.616;9.548;2022-08-19T00:52:23;96488.19;;;20.16;100.00
9139;BME280;4604;48.616;9.548;2022-08-19T00:54:53;96476.66;;;20.15;100.00
9139;BME280;4604;48.616;9.548;2022-08-19T00:57:23;96485.31;;;20.17;100.00
9139;BME280;4604;48.616;9.548;2022-08-19T00:59:56;96475.00;;;20.21;100.00
9139;BME280;4604;48.616;9.548;2022-08-19T01:02:23;96463.72;;;20.05;100.00
9139;BME280;4604;48.616;9.548;2022-08-19T01:04:50;96459.59;;;20.03;100.00
9139;BME280;4604;48.616;9.548;2022-08-19T01:07:18;96477.91;;;20.13;100.00
9139;BME280;4604;48.616;9.548;2022-08-19T01:09:45;96471.94;;;20.10;100.00
9139;BME280;4604;48.616;9.548;2022-08-19T01:12:11;96463.91;;;20.04;100.00
9139;BME280;4604;48.616;9.548;2022-08-19T01:14:39;96467.00;;;20.07;100.00
9139;BME280;4604;48.616;9.548;2022-08-19T01:17:09;96458.56;;;20.04;100.00
9139;BME280;4604;48.616;9.548;2022-08-19T01:19:39;96461.84;;;19.99;100.00
9139;BME280;4604;48.616;9.548;2022-08-19T01:22:11;96468.66;;;20.02;100.00
9139;BME280;4604;48.616;9.548;2022-08-19T01:24:40;96474.25;;;20.00;100.00
9139;BME280;4604;48.616;9.548;2022-08-19T01:27:07;96465.59;;;19.98;100.00
9139;BME280;4604;48.616;9.548;2022-08-19T01:29:37;96464.34;;;20.01;100.00
9139;BME280;4604;48.616;9.548;2022-08-19T01:32:04;96462.91;;;19.98;100.00
9139;BME280;4604;48.616;9.548;2022-08-19T01:34:31;96473.44;;;19.93;100.00
9139;BME280;4604;48.616;9.548;2022-08-19T01:36:59;96470.13;;;19.84;100.00
9139;BME280;4604;48.616;9.548;2022-08-19T01:39:27;96479.03;;;19.85;100.00
9139;BME280;4604;48.616;9.548;2022-08-19T01:41:56;96467.47;;;19.84;100.00
9139;BME280;4604;48.616;9.548;2022-08-19T01:44:22;96466.63;;;19.84;100.00
9139;BME280;4604;48.616;9.548;2022-08-19T01:46:51;96467.25;;;19.86;100.00
9139;BME280;4604;48.616;9.548;2022-08-19T01:49:20;96453.88;;;19.73;100.00
9139;BME280;4604;48.616;9.548;2022-08-19T01:51:47;96462.72;;;19.86;100.00
9139;BME280;4604;48.616;9.548;2022-08-19T01:54:16;96471.78;;;19.85;100.00
9139;BME280;4604;48.616;9.548;2022-08-19T01:56:44;96465.63;;;19.85;100.00
9139;BME280;4604;48.616;9.548;2022-08-19T01:59:14;96463.97;;;19.84;100.00
9139;BME280;4604;48.616;9.548;2022-08-19T02:01:42;96471.19;;;19.83;100.00
9139;BME280;4604;48.616;9.548;2022-08-19T02:04:09;96468.69;;;19.82;100.00
9139;BME280;4604;48.616;9.548;2022-08-19T02:06:37;96455.53;;;19.74;100.00
9139;BME280;4604;48.616;9.548;2022-08-19T02:09:05;96466.06;;;19.75;100.00
9139;BME280;4604;48.616;9.548;2022-08-19T02:11:35;96460.91;;;19.74;100.00
9139;BME280;4604;48.616;9.548;2022-08-19T02:14:04;96469.34;;;19.71;100.00
9139;BME280;4604;48.616;9.548;2022-08-19T02:16:33;96475.94;;;19.68;100.00
9139;BME280;4604;48.616;9.548;2022-08-19T02:19:00;96481.50;;;19.73;100.00
9139;BME280;4604;48.616;9.548;2022-08-19T02:21:27;96472.03;;;19.71;100.00
9139;BME280;4604;48.616;9.548;2022-08-19T02:23:55;96458.84;;;19.56;100.00
9139;BME280;4604;48.616;9.548;2022-08-19T02:26:22;96478.78;;;19.66;100.00
9139;BME280;4604;48.616;9.548;2022-08-19T02:28:52;96467.47;;;19.64;100.00
9139;BME280;4604;48.616;9.548;2022-08-19T02:31:21;96475.50;;;19.64;100.00
9139;BME280;4604;48.616;9.548;2022-08-19T02:33:49;96467.47;;;19.64;100.00
9139;BME280;4604;48.616;9.548;2022-08-19T02:36:17;96455.75;;;19.59;100.00
9139;BME280;4604;48.616;9.548;2022-08-19T02:38:45;96454.31;;;19.56;100.00
9139;BME280;4604;48.616;9.548;2022-08-19T02:41:13;96456.94;;;19.63;100.00
9139;BME280;4604;48.616;9.548;2022-08-19T02:43:40;96469.13;;;19.59;100.00
9139;BME280;4604;48.616;9.548;2022-08-19T02:46:14;96464.78;;;19.58;100.00
9139;BME280;4604;48.616;9.548;2022-08-19T02:48:43;96426.94;;;19.34;100.00
9139;BME280;4604;48.616;9.548;2022-08-19T02:51:16;96453.25;;;19.51;100.00
9139;BME280;4604;48.616;9.548;2022-08-19T02:53:43;96455.94;;;19.51;100.00
9139;BME280;4604;48.616;9.548;2022-08-19T02:56:10;96439.28;;;19.42;100.00
9139;BME280;4604;48.616;9.548;2022-08-19T02:58:36;96430.41;;;19.28;100.00
9139;BME280;4604;48.616;9.548;2022-08-19T03:01:03;96458.22;;;19.34;100.00
9139;BME280;4604;48.616;9.548;2022-08-19T03:03:30;96466.03;;;19.42;100.00
9139;BME280;4604;48.616;9.548;2022-08-19T03:06:08;96475.94;;;19.41;100.00
9139;BME280;4604;48.616;9.548;2022-08-19T03:08:37;96480.25;;;19.42;100.00
9139;BME280;4604;48.616;9.548;2022-08-19T03:11:05;96477.75;;;19.41;100.00
9139;BME280;4604;48.616;9.548;2022-08-19T03:13:32;96459.84;;;19.28;100.00
9139;BME280;4604;48.616;9.548;2022-08-19T03:15:59;96477.34;;;19.31;100.00
9139;BME280;4604;48.616;9.548;2022-08-19T03:18:25;96461.94;;;19.19;100.00
9139;BME280;4604;48.616;9.548;2022-08-19T03:20:52;96468.31;;;19.25;100.00
9139;BME280;4604;48.616;9.548;2022-08-19T03:23:20;96462.34;;;19.30;100.00
9139;BME280;4604;48.616;9.548;2022-08-19T03:25:50;96452.66;;;19.22;100.00
9139;BME280;4604;48.616;9.548;2022-08-19T03:28:17;96457.41;;;19.27;100.00
9139;BME280;4604;48.616;9.548;2022-08-19T03:30:55;96467.25;;;19.26;100.00
9139;BME280;4604;48.616;9.548;2022-08-19T03:33:23;96471.59;;;19.27;100.00
9139;BME280;4604;48.616;9.548;2022-08-19T03:36:00;96465.22;;;19.28;100.00
9139;BME280;4604;48.616;9.548;2022-08-19T03:38:28;96473.03;;;19.23;100.00
9139;BME280;4604;48.616;9.548;2022-08-19T03:40:56;96467.47;;;19.18;100.00
9139;BME280;4604;48.616;9.548;2022-08-19T03:43:23;96464.78;;;19.18;100.00
9139;BME280;4604;48.616;9.548;2022-08-19T03:45:59;96471.78;;;19.19;100.00
9139;BME280;4604;48.616;9.548;2022-08-19T03:48:28;96483.94;;;19.21;100.00
9139;BME280;4604;48.616;9.548;2022-08-19T03:50:56;96478.16;;;19.18;100.00
9139;BME280;4604;48.616;9.548;2022-08-19T03:53:23;96484.97;;;19.20;100.00
9139;BME280;4604;48.616;9.548;2022-08-19T03:55:51;96484.34;;;19.18;100.00
9139;BME280;4604;48.616;9.548;2022-08-19T03:58:19;96477.97;;;19.19;100.00
9139;BME280;4604;48.616;9.548;2022-08-19T04:00:46;96476.31;;;19.18;100.00
9139;BME280;4604;48.616;9.548;2022-08-19T04:03:13;96474.88;;;19.16;100.00
9139;BME280;4604;48.616;9.548;2022-08-19T04:05:39;96467.69;;;19.10;100.00
9139;BME280;4604;48.616;9.548;2022-08-19T04:08:06;96466.00;;;19.09;100.00
9139;BME280;4604;48.616;9.548;2022-08-19T04:10:35;96467.69;;;19.10;100.00
9139;BME280;4604;48.616;9.548;2022-08-19T04:13:02;96462.34;;;19.10;100.00
9139;BME280;4604;48.616;9.548;2022-08-19T04:15:30;96468.91;;;19.14;100.00
9139;BME280;4604;48.616;9.548;2022-08-19T04:18:01;96451.41;;;19.11;100.00
9139;BME280;4604;48.616;9.548;2022-08-19T04:20:27;96452.44;;;19.10;100.00
9139;BME280;4604;48.616;9.548;2022-08-19T04:22:56;96451.22;;;19.13;100.00
9139;BME280;4604;48.616;9.548;2022-08-19T04:25:23;96449.16;;;19.08;100.00
9139;BME280;4604;48.616;9.548;2022-08-19T04:27:49;96427.94;;;18.93;100.00
9139;BME280;4604;48.616;9.548;2022-08-19T04:30:16;96459.03;;;19.08;100.00
9139;BME280;4604;48.616;9.548;2022-08-19T04:32:45;96463.56;;;19.07;100.00
9139;BME280;4604;48.616;9.548;2022-08-19T04:35:12;96464.16;;;19.09;100.00
9139;BME280;4604;48.616;9.548;2022-08-19T04:37:39;96462.53;;;19.08;100.00
9139;BME280;4604;48.616;9.548;2022-08-19T04:40:07;96456.75;;;19.11;100.00
9139;BME280;4604;48.616;9.548;2022-08-19T04:42:51;96439.28;;;18.95;100.00
9139;BME280;4604;48.616;9.548;2022-08-19T04:45:18;96476.91;;;19.14;100.00
9139;BME280;4604;48.616;9.548;2022-08-19T04:47:47;96463.56;;;19.07;100.00
9139;BME280;4604;48.616;9.548;2022-08-19T04:50:14;96468.06;;;19.07;100.00
9139;BME280;4604;48.616;9.548;2022-08-19T04:52:41;96476.53;;;19.17;100.00
9139;BME280;4604;48.616;9.548;2022-08-19T04:55:08;96479.81;;;19.19;100.00
9139;BME280;4604;48.616;9.548;2022-08-19T04:57:35;96463.34;;;19.09;100.00
9139;BME280;4604;48.616;9.548;2022-08-19T05:00:07;96487.44;;;19.22;100.00
9139;BME280;4604;48.616;9.548;2022-08-19T05:02:34;96492.81;;;19.22;100.00
9139;BME280;4604;48.616;9.548;2022-08-19T05:05:03;96486.41;;;19.16;100.00
9139;BME280;4604;48.616;9.548;2022-08-19T05:07:31;96507.41;;;19.26;100.00
9139;BME280;4604;48.616;9.548;2022-08-19T05:09:58;96510.47;;;19.23;100.00
9139;BME280;4604;48.616;9.548;2022-08-19T05:12:25;96527.78;;;19.27;100.00
9139;BME280;4604;48.616;9.548;2022-08-19T05:14:52;96508.41;;;19.18;100.00
9139;BME280;4604;48.616;9.548;2022-08-19T05:17:19;96532.09;;;19.28;100.00
9139;BME280;4604;48.616;9.548;2022-08-19T05:19:46;96525.31;;;19.25;100.00
9139;BME280;4604;48.616;9.548;2022-08-19T05:22:31;96531.88;;;19.23;100.00
9139;BME280;4604;48.616;9.548;2022-08-19T05:25:03;96544.84;;;19.26;100.00
9139;BME280;4604;48.616;9.548;2022-08-19T05:27:30;96547.94;;;19.23;100.00
9139;BME280;4604;48.616;9.548;2022-08-19T05:29:57;96563.19;;;19.22;100.00
9139;BME280;4604;48.616;9.548;2022-08-19T05:32:24;96566.25;;;19.26;100.00
9139;BME280;4604;48.616;9.548;2022-08-19T05:34:51;96574.28;;;19.26;100.00
9139;BME280;4604;48.616;9.548;2022-08-19T05:37:18;96578.41;;;19.29;100.00
9139;BME280;4604;48.616;9.548;2022-08-19T05:39:46;96574.69;;;19.23;100.00
9139;BME280;4604;48.616;9.548;2022-08-19T05:42:14;96588.09;;;19.30;100.00
9139;BME280;4604;48.616;9.548;2022-08-19T05:44:43;96553.69;;;19.13;100.00
9139;BME280;4604;48.616;9.548;2022-08-19T05:47:12;96564.19;;;19.21;100.00
9139;BME280;4604;48.616;9.548;2022-08-19T05:49:40;96571.41;;;19.21;100.00
9139;BME280;4604;48.616;9.548;2022-08-19T05:52:09;96570.16;;;19.17;100.00
9139;BME280;4604;48.616;9.548;2022-08-19T05:54:37;96583.13;;;19.20;100.00
9139;BME280;4604;48.616;9.548;2022-08-19T05:57:07;96577.75;;;19.13;100.00
9139;BME280;4604;48.616;9.548;2022-08-19T05:59:34;96574.28;;;19.13;100.00
9139;BME280;4604;48.616;9.548;2022-08-19T06:02:03;96577.53;;;19.08;100.00
9139;BME280;4604;48.616;9.548;2022-08-19T06:04:30;96571.38;;;19.08;100.00
9139;BME280;4604;48.616;9.548;2022-08-19T06:06:57;96569.72;;;19.00;100.00
9139;BME280;4604;48.616;9.548;2022-08-19T06:09:23;96579.38;;;19.01;100.00
9139;BME280;4604;48.616;9.548;2022-08-19T06:11:51;96576.69;;;19.01;100.00
9139;BME280;4604;48.616;9.548;2022-08-19T06:14:23;96578.13;;;18.97;100.00
9139;BME280;4604;48.616;9.548;2022-08-19T06:16:50;96574.25;;;19.06;100.00
9139;BME280;4604;48.616;9.548;2022-08-19T06:19:20;96554.03;;;18.90;100.00
9139;BME280;4604;48.616;9.548;2022-08-19T06:21:48;96577.31;;;19.03;100.00
9139;BME280;4604;48.616;9.548;2022-08-19T06:24:18;96575.06;;;19.00;100.00
9139;BME280;4604;48.616;9.548;2022-08-19T06:26:46;96577.75;;;19.00;100.00
9139;BME280;4604;48.616;9.548;2022-08-19T06:29:16;96582.69;;;19.03;100.00
9139;BME280;4604;48.616;9.548;2022-08-19T06:31:49;96579.59;;;19.06;100.00
9139;BME280;4604;48.616;9.548;2022-08-19T06:34:16;96573.16;;;18.87;100.00
9139;BME280;4604;48.616;9.548;2022-08-19T06:36:46;96564.28;;;18.80;100.00
9139;BME280;4604;48.616;9.548;2022-08-19T06:39:14;96576.25;;;18.91;100.00
9139;BME280;4604;48.616;9.548;2022-08-19T06:41:43;96580.38;;;18.93;100.00
9139;BME280;4604;48.616;9.548;2022-08-19T06:44:11;96582.88;;;18.95;100.00
9139;BME280;4604;48.616;9.548;2022-08-19T06:46:39;96593.31;;;18.90;100.00
9139;BME280;4604;48.616;9.548;2022-08-19T06:49:08;96580.56;;;18.85;100.00
9139;BME280;4604;48.616;9.548;2022-08-19T06:51:35;96579.31;;;18.81;100.00
9139;BME280;4604;48.616;9.548;2022-08-19T06:54:02;96588.59;;;18.92;100.00
9139;BME280;4604;48.616;9.548;2022-08-19T06:56:30;96590.25;;;18.99;100.00
9139;BME280;4604;48.616;9.548;2022-08-19T06:58:59;96592.13;;;18.99;100.00
9139;BME280;4604;48.616;9.548;2022-08-19T07:01:26;96595.00;;;18.97;100.00
9139;BME280;4604;48.616;9.548;2022-08-19T07:03:53;96599.09;;;18.93;100.00
9139;BME280;4604;48.616;9.548;2022-08-19T07:06:21;96599.09;;;18.93;100.00
9139;BME280;4604;48.616;9.548;2022-08-19T07:08:48;96584.88;;;18.86;100.00
9139;BME280;4604;48.616;9.548;2022-08-19T07:11:17;96594.56;;;18.94;100.00
9139;BME280;4604;48.616;9.548;2022-08-19T07:13:45;96585.72;;;18.93;100.00
9139;BME280;4604;48.616;9.548;2022-08-19T07:16:16;96602.81;;;18.99;100.00
9139;BME280;4604;48.616;9.548;2022-08-19T07:18:44;96594.38;;;18.95;100.00
9139;BME280;4604;48.616;9.548;2022-08-19T07:21:15;96601.19;;;18.98;100.00
9139;BME280;4604;48.616;9.548;2022-08-19T07:23:44;96601.31;;;18.83;100.00
9139;BME280;4604;48.616;9.548;2022-08-19T07:26:13;96600.09;;;18.86;100.00
9139;BME280;4604;48.616;9.548;2022-08-19T07:28:40;96608.56;;;18.96;100.00
9139;BME280;4604;48.616;9.548;2022-08-19T07:31:10;96598.50;;;18.98;100.00
9139;BME280;4604;48.616;9.548;2022-08-19T07:33:37;96601.22;;;19.05;100.00
9139;BME280;4604;48.616;9.548;2022-08-19T07:36:05;96597.69;;;19.04;100.00
9139;BME280;4604;48.616;9.548;2022-08-19T07:38:33;96594.41;;;19.02;100.00
9139;BME280;4604;48.616;9.548;2022-08-19T07:41:02;96603.03;;;19.04;100.00
9139;BME280;4604;48.616;9.548;2022-08-19T07:43:28;96589.00;;;18.89;100.00
9139;BME280;4604;48.616;9.548;2022-08-19T07:45:55;96592.13;;;18.92;100.00
9139;BME280;4604;48.616;9.548;2022-08-19T07:48:22;96600.97;;;18.99;100.00
9139;BME280;4604;48.616;9.548;2022-08-19T07:50:51;96602.81;;;18.92;100.00
9139;BME280;4604;48.616;9.548;2022-08-19T07:53:18;96604.84;;;18.90;100.00
9139;BME280;4604;48.616;9.548;2022-08-19T07:55:45;96609.97;;;18.85;100.00
9139;BME280;4604;48.616;9.548;2022-08-19T07:58:16;96611.38;;;18.81;100.00
9139;BME280;4604;48.616;9.548;2022-08-19T08:00:44;96619.81;;;18.85;100.00
9139;BME280;4604;48.616;9.548;2022-08-19T08:03:12;96585.59;;;18.67;100.00
9139;BME280;4604;48.616;9.548;2022-08-19T08:05:39;96618.22;;;18.90;100.00
9139;BME280;4604;48.616;9.548;2022-08-19T08:08:24;96609.13;;;18.78;100.00
9139;BME280;4604;48.616;9.548;2022-08-19T08:11:08;96614.91;;;18.88;100.00
9139;BME280;4604;48.616;9.548;2022-08-19T08:13:37;96615.16;;;18.93;100.00
9139;BME280;4604;48.616;9.548;2022-08-19T08:16:06;96618.88;;;18.99;100.00
9139;BME280;4604;48.616;9.548;2022-08-19T08:18:33;96617.41;;;18.96;100.00
9139;BME280;4604;48.616;9.548;2022-08-19T08:21:07;96598.25;;;18.86;100.00
9139;BME280;4604;48.616;9.548;2022-08-19T08:23:33;96604.84;;;18.90;100.00
9139;BME280;4604;48.616;9.548;2022-08-19T08:26:00;96614.97;;;19.01;100.00
9139;BME280;4604;48.616;9.548;2022-08-19T08:28:28;96614.78;;;19.03;100.00
9139;BME280;4604;48.616;9.548;2022-08-19T08:30:57;96622.38;;;19.06;100.00
9139;BME280;4604;48.616;9.548;2022-08-19T08:33:26;96616.22;;;19.06;100.00
9139;BME280;4604;48.616;9.548;2022-08-19T08:35:53;96623.84;;;19.09;100.00
9139;BME280;4604;48.616;9.548;2022-08-19T08:38:20;96617.66;;;19.08;100.00
9139;BME280;4604;48.616;9.548;2022-08-19T08:40:48;96620.13;;;19.03;100.00
9139;BME280;4604;48.616;9.548;2022-08-19T08:43:24;96624.63;;;18.96;100.00
9139;BME280;4604;48.616;9.548;2022-08-19T08:45:59;96616.41;;;18.97;100.00
9139;BME280;4604;48.616;9.548;2022-08-19T08:48:44;96631.22;;;19.00;100.00
9139;BME280;4604;48.616;9.548;2022-08-19T08:51:16;96619.69;;;18.93;100.00
9139;BME280;4604;48.616;9.548;2022-08-19T08:53:48;96634.13;;;19.05;100.00
9139;BME280;4604;48.616;9.548;2022-08-19T08:56:16;96635.34;;;19.09;100.00
9139;BME280;4604;48.616;9.548;2022-08-19T08:58:49;96558.81;;;18.53;100.00
9139;BME280;4604;48.616;9.548;2022-08-19T09:01:19;96624.22;;;18.92;100.00
9139;BME280;4604;48.616;9.548;2022-08-19T09:03:46;96635.13;;;18.97;100.00
9139;BME280;4604;48.616;9.548;2022-08-19T09:06:22;96636.34;;;19.01;100.00
9139;BME280;4604;48.616;9.548;2022-08-19T09:09:00;96642.97;;;19.06;100.00
9139;BME280;4604;48.616;9.548;2022-08-19T09:11:44;96636.59;;;19.07;100.00
9139;BME280;4604;48.616;9.548;2022-08-19T09:14:23;96641.94;;;19.07;100.00
9139;BME280;4604;48.616;9.548;2022-08-19T09:16:56;96647.06;;;19.01;100.00
9139;BME280;4604;48.616;9.548;2022-08-19T09:19:25;96647.25;;;18.93;100.00
9139;BME280;4604;48.616;9.548;2022-08-19T09:21:52;96640.63;;;18.83;100.00
9139;BME280;4604;48.616;9.548;2022-08-19T09:24:18;96637.25;;;18.74;100.00
9139;BME280;4604;48.616;9.548;2022-08-19T09:26:45;96649.97;;;18.72;100.00
9139;BME280;4604;48.616;9.548;2022-08-19T09:29:12;96648.88;;;18.59;100.00
9139;BME280;4604;48.616;9.548;2022-08-19T09:31:39;96651.59;;;18.66;100.00
9139;BME280;4604;48.616;9.548;2022-08-19T09:34:08;96651.81;;;18.71;100.00
9139;BME280;4604;48.616;9.548;2022-08-19T09:36:34;96652.00;;;18.63;100.00
9139;BME280;4604;48.616;9.548;2022-08-19T09:39:05;96651.94;;;18.56;100.00
9139;BME280;4604;48.616;9.548;2022-08-19T09:41:32;96649.28;;;18.56;100.00
9139;BME280;4604;48.616;9.548;2022-08-19T09:43:59;96646.84;;;18.61;100.00
9139;BME280;4604;48.616;9.548;2022-08-19T09:46:27;96649.03;;;18.51;100.00
9139;BME280;4604;48.616;9.548;2022-08-19T09:48:58;96652.53;;;18.52;100.00
9139;BME280;4604;48.616;9.548;2022-08-19T09:51:28;96641.22;;;18.50;100.00
9139;BME280;4604;48.616;9.548;2022-08-19T09:53:59;96653.19;;;18.60;100.00
9139;BME280;4604;48.616;9.548;2022-08-19T09:56:26;96659.66;;;18.73;100.00
9139;BME280;4604;48.616;9.548;2022-08-19T09:58:53;96660.63;;;18.65;100.00
9139;BME280;4604;48.616;9.548;2022-08-19T10:01:21;96659.84;;;18.71;100.00
9139;BME280;4604;48.616;9.548;2022-08-19T10:03:49;96606.63;;;18.42;100.00
9139;BME280;4604;48.616;9.548;2022-08-19T10:06:18;96665.94;;;18.58;100.00
9139;BME280;4604;48.616;9.548;2022-08-19T10:08:47;96663.22;;;18.52;100.00
9139;BME280;4604;48.616;9.548;2022-08-19T10:11:18;96661.88;;;18.34;100.00
9139;BME280;4604;48.616;9.548;2022-08-19T10:13:46;96655.56;;;18.42;100.00
9139;BME280;4604;48.616;9.548;2022-08-19T10:16:17;96650.09;;;18.57;100.00
9139;BME280;4604;48.616;9.548;2022-08-19T10:18:45;96659.81;;;18.65;100.00
9139;BME280;4604;48.616;9.548;2022-08-19T10:21:15;96654.00;;;18.54;100.00
9139;BME280;4604;48.616;9.548;2022-08-19T10:23:44;96662.28;;;18.66;100.00
9139;BME280;4604;48.616;9.548;2022-08-19T10:26:15;96663.75;;;18.69;100.00
9139;BME280;4604;48.616;9.548;2022-08-19T10:28:42;96659.28;;;18.76;100.00
9139;BME280;4604;48.616;9.548;2022-08-19T10:31:15;96661.97;;;18.76;100.00
9139;BME280;4604;48.616;9.548;2022-08-19T10:33:43;96655.72;;;18.69;100.00
9139;BME280;4604;48.616;9.548;2022-08-19T10:36:12;96654.00;;;18.54;100.00
9139;BME280;4604;48.616;9.548;2022-08-19T10:38:41;96656.34;;;18.71;100.00
9139;BME280;4604;48.616;9.548;2022-08-19T10:41:11;96662.72;;;18.70;100.00
9139;BME280;4604;48.616;9.548;2022-08-19T10:43:39;96667.22;;;18.69;100.00
9139;BME280;4604;48.616;9.548;2022-08-19T10:46:07;96664.41;;;18.77;100.00
9139;BME280;4604;48.616;9.548;2022-08-19T10:48:34;96660.53;;;18.80;100.00
9139;BME280;4604;48.616;9.548;2022-08-19T10:51:01;96669.03;;;18.90;100.00
9139;BME280;4604;48.616;9.548;2022-08-19T10:53:45;96657.34;;;18.98;100.00
9139;BME280;4604;48.616;9.548;2022-08-19T10:56:13;96667.88;;;19.06;100.00
9139;BME280;4604;48.616;9.548;2022-08-19T10:58:59;96663.56;;;19.12;100.00
9139;BME280;4604;48.616;9.548;2022-08-19T11:01:26;96665.84;;;19.15;100.00
9139;BME280;4604;48.616;9.548;2022-08-19T11:03:55;96649.53;;;19.03;100.00
9139;BME280;4604;48.616;9.548;2022-08-19T11:06:23;96660.31;;;19.23;100.00
9139;BME280;4604;48.616;9.548;2022-08-19T11:08:51;96661.56;;;19.27;100.00
9139;BME280;4604;48.616;9.548;2022-08-19T11:11:18;96656.19;;;19.20;100.00
9139;BME280;4604;48.616;9.548;2022-08-19T11:13:45;96652.88;;;19.18;100.00
9139;BME280;4604;48.616;9.548;2022-08-19T11:16:16;96655.41;;;19.27;100.00
9139;BME280;4604;48.616;9.548;2022-08-19T11:18:44;96660.34;;;19.30;100.00
9139;BME280;4604;48.616;9.548;2022-08-19T11:21:14;96660.75;;;19.33;100.00
9139;BME280;4604;48.616;9.548;2022-08-19T11:23:42;96656.47;;;19.39;100.00
9139;BME280;4604;48.616;9.548;2022-08-19T11:26:10;96656.25;;;19.40;100.00
9139;BME280;4604;48.616;9.548;2022-08-19T11:28:37;96650.72;;;19.42;100.00
9139;BME280;4604;48.616;9.548;2022-08-19T11:31:04;96653.59;;;19.47;100.00
9139;BME280;4604;48.616;9.548;2022-08-19T11:33:36;96653.41;;;19.49;100.00
9139;BME280;4604;48.616;9.548;2022-08-19T11:36:04;96654.63;;;19.53;100.00
9139;BME280;4604;48.616;9.548;2022-08-19T11:38:31;96656.72;;;19.57;100.00
9139;BME280;4604;48.616;9.548;2022-08-19T11:40:59;96626.00;;;19.40;100.00
9139;BME280;4604;48.616;9.548;2022-08-19T11:43:27;96653.44;;;19.62;100.00
9139;BME280;4604;48.616;9.548;2022-08-19T11:45:54;96656.31;;;19.60;100.00
9139;BME280;4604;48.616;9.548;2022-08-19T11:48:22;96646.81;;;19.51;100.00
9139;BME280;4604;48.616;9.548;2022-08-19T11:50:51;96667.44;;;19.64;100.00
9139;BME280;4604;48.616;9.548;2022-08-19T11:53:18;96619.19;;;19.37;100.00
9139;BME280;4604;48.616;9.548;2022-08-19T11:55:46;96664.34;;;19.60;100.00
9139;BME280;4604;48.616;9.548;2022-08-19T11:58:14;96649.09;;;19.54;100.00
9139;BME280;4604;48.616;9.548;2022-08-19T12:00:42;96658.78;;;19.62;100.00
9139;BME280;4604;48.616;9.548;2022-08-19T12:03:10;96632.38;;;19.45;100.00
9139;BME280;4604;48.616;9.548;2022-08-19T12:05:38;96662.09;;;19.64;100.00
9139;BME280;4604;48.616;9.548;2022-08-19T12:08:06;96669.69;;;19.60;100.00
9139;BME280;4604;48.616;9.548;2022-08-19T12:10:34;96662.69;;;19.59;100.00
9139;BME280;4604;48.616;9.548;2022-08-19T12:13:01;96662.06;;;19.57;100.00
9139;BME280;4604;48.616;9.548;2022-08-19T12:15:28;96669.09;;;19.58;100.00
9139;BME280;4604;48.616;9.548;2022-08-19T12:17:55;96664.13;;;19.55;100.00
9139;BME280;4604;48.616;9.548;2022-08-19T12:20:22;96669.09;;;19.58;100.00
9139;BME280;4604;48.616;9.548;2022-08-19T12:22:49;96635.06;;;19.39;100.00
9139;BME280;4604;48.616;9.548;2022-08-19T12:25:18;96673.19;;;19.54;100.00
9139;BME280;4604;48.616;9.548;2022-08-19T12:27:46;96669.25;;;19.50;100.00
9139;BME280;4604;48.616;9.548;2022-08-19T12:30:15;96671.94;;;19.43;100.00
9139;BME280;4604;48.616;9.548;2022-08-19T12:32:41;96681.78;;;19.43;100.00
9139;BME280;4604;48.616;9.548;2022-08-19T12:35:08;96655.19;;;19.28;100.00
9139;BME280;4604;48.616;9.548;2022-08-19T12:37:37;96653.16;;;19.30;100.00
9139;BME280;4604;48.616;9.548;2022-08-19T12:40:04;96683.25;;;19.45;100.00
9139;BME280;4604;48.616;9.548;2022-08-19T12:42:34;96681.19;;;19.48;100.00
9139;BME280;4604;48.616;9.548;2022-08-19T12:45:01;96678.31;;;19.49;100.00
9139;BME280;4604;48.616;9.548;2022-08-19T12:47:28;96682.44;;;19.52;100.00
9139;BME280;4604;48.616;9.548;2022-08-19T12:49:55;96680.81;;;19.57;100.00
9139;BME280;4604;48.616;9.548;2022-08-19T12:52:24;96669.09;;;19.58;100.00
9139;BME280;4604;48.616;9.548;2022-08-19T12:54:54;96685.63;;;19.69;100.00
9139;BME280;4604;48.616;9.548;2022-08-19T12:57:23;96681.69;;;19.71;100.00
9139;BME280;4604;48.616;9.548;2022-08-19T12:59:53;96665.56;;;19.58;100.00
9139;BME280;4604;48.616;9.548;2022-08-19T13:02:20;96685.19;;;19.72;100.00
9139;BME280;4604;48.616;9.548;2022-08-19T13:04:47;96682.53;;;19.72;100.00
9139;BME280;4604;48.616;9.548;2022-08-19T13:07:14;96683.56;;;19.71;100.00
9139;BME280;4604;48.616;9.548;2022-08-19T13:09:41;96688.91;;;19.71;100.00
9139;BME280;4604;48.616;9.548;2022-08-19T13:12:08;96697.34;;;19.67;100.00
9139;BME280;4604;48.616;9.548;2022-08-19T13:14:38;96694.47;;;19.69;100.00
9139;BME280;4604;48.616;9.548;2022-08-19T13:17:06;96687.88;;;19.72;100.00